sensor_id;sensor_type;location;lat;lon;timestamp;temperature;humidity
46123;DHT22;31856;-35.404;149.120;2023-05-01T00:01:19;11.10;82.70
46123;DHT22;31856;-35.404;149.120;2023-05-01T00:03:50;11.20;82.60
46123;DHT22;31856;-35.404;149.120;2023-05-01T00:06:20;11.20;82.60
46123;DHT22;31856;-35.404;149.120;2023-05-01T00:08:50;11.20;82.50
46123;DHT22;31856;-35.404;149.120;2023-05-01T00:11:20;11.20;81.90
46123;DHT22;31856;-35.404;149.120;2023-05-01T00:13:51;11.30;82.30
46123;DHT22;31856;-35.404;149.120;2023-05-01T00:16:22;11.30;82.10
46123;DHT22;31856;-35.404;149.120;2023-05-01T00:18:51;11.40;81.50
46123;DHT22;31856;-35.404;149.120;2023-05-01T00:21:21;11.50;81.30
46123;DHT22;31856;-35.404;149.120;2023-05-01T00:23:51;11.50;80.90
46123;DHT22;31856;-35.404;149.120;2023-05-01T00:26:20;11.50;81.20
46123;DHT22;31856;-35.404;149.120;2023-05-01T00:28:50;11.60;81.00
46123;DHT22;31856;-35.404;149.120;2023-05-01T00:31:19;11.80;80.50
46123;DHT22;31856;-35.404;149.120;2023-05-01T00:33:49;11.80;79.80
46123;DHT22;31856;-35.404;149.120;2023-05-01T00:36:19;11.80;79.80
46123;DHT22;31856;-35.404;149.120;2023-05-01T00:38:49;11.80;79.40
46123;DHT22;31856;-35.404;149.120;2023-05-01T00:41:19;11.90;79.60
46123;DHT22;31856;-35.404;149.120;2023-05-01T00:43:48;11.90;79.10
46123;DHT22;31856;-35.404;149.120;2023-05-01T00:46:18;12.00;78.70
46123;DHT22;31856;-35.404;149.120;2023-05-01T00:48:47;12.10;78.50
46123;DHT22;31856;-35.404;149.120;2023-05-01T00:51:17;12.30;78.10
46123;DHT22;31856;-35.404;149.120;2023-05-01T00:53:47;12.50;77.00
46123;DHT22;31856;-35.404;149.120;2023-05-01T00:56:17;12.70;75.90
46123;DHT22;31856;-35.404;149.120;2023-05-01T00:58:48;12.90;76.30
46123;DHT22;31856;-35.404;149.120;2023-05-01T01:01:21;13.00;76.00
46123;DHT22;31856;-35.404;149.120;2023-05-01T01:03:51;13.10;76.70
46123;DHT22;31856;-35.404;149.120;2023-05-01T01:14:17;12.80;73.10
46123;DHT22;31856;-35.404;149.120;2023-05-01T01:19:24;13.00;75.10
46123;DHT22;31856;-35.404;149.120;2023-05-01T01:22:01;13.00;75.20
46123;DHT22;31856;-35.404;149.120;2023-05-01T01:24:45;13.00;73.50
46123;DHT22;31856;-35.404;149.120;2023-05-01T05:58:48;14.80;69.70
46123;DHT22;31856;-35.404;149.120;2023-05-01T06:01:18;14.80;69.80
46123;DHT22;31856;-35.404;149.120;2023-05-01T06:03:49;14.90;69.80
46123;DHT22;31856;-35.404;149.120;2023-05-01T06:06:22;14.90;70.70
46123;DHT22;31856;-35.404;149.120;2023-05-01T06:08:55;14.90;70.40
46123;DHT22;31856;-35.404;149.120;2023-05-01T06:11:30;14.80;70.00
46123;DHT22;31856;-35.404;149.120;2023-05-01T06:14:11;14.70;70.30
46123;DHT22;31856;-35.404;149.120;2023-05-01T06:16:41;14.70;70.90
46123;DHT22;31856;-35.404;149.120;2023-05-01T06:19:11;14.50;71.40
46123;DHT22;31856;-35.404;149.120;2023-05-01T06:21:40;14.40;71.50
46123;DHT22;31856;-35.404;149.120;2023-05-01T06:24:10;14.30;72.00
46123;DHT22;31856;-35.404;149.120;2023-05-01T06:26:40;14.20;72.40
46123;DHT22;31856;-35.404;149.120;2023-05-01T06:29:12;14.10;72.30
46123;DHT22;31856;-35.404;149.120;2023-05-01T06:31:49;14.00;72.40
46123;DHT22;31856;-35.404;149.120;2023-05-01T06:37:28;13.80;72.60
46123;DHT22;31856;-35.404;149.120;2023-05-01T06:40:13;13.50;73.60
46123;DHT22;31856;-35.404;149.120;2023-05-01T06:42:46;13.50;73.60
46123;DHT22;31856;-35.404;149.120;2023-05-01T06:45:19;13.50;73.90
46123;DHT22;31856;-35.404;149.120;2023-05-01T06:47:57;13.40;74.10
46123;DHT22;31856;-35.404;149.120;2023-05-01T06:50:26;13.30;74.20
46123;DHT22;31856;-35.404;149.120;2023-05-01T06:52:56;13.30;74.50
46123;DHT22;31856;-35.404;149.120;2023-05-01T06:55:27;13.30;74.60
46123;DHT22;31856;-35.404;149.120;2023-05-01T06:58:02;13.20;74.80
46123;DHT22;31856;-35.404;149.120;2023-05-01T07:00:42;13.10;74.70
46123;DHT22;31856;-35.404;149.120;2023-05-01T07:03:11;13.10;74.70
46123;DHT22;31856;-35.404;149.120;2023-05-01T07:05:41;12.90;75.00
46123;DHT22;31856;-35.404;149.120;2023-05-01T07:08:10;12.90;75.20
46123;DHT22;31856;-35.404;149.120;2023-05-01T07:10:40;12.90;75.10
46123;DHT22;31856;-35.404;149.120;2023-05-01T07:13:10;12.80;75.50
46123;DHT22;31856;-35.404;149.120;2023-05-01T07:15:39;12.80;75.50
46123;DHT22;31856;-35.404;149.120;2023-05-01T07:18:10;12.80;75.80
46123;DHT22;31856;-35.404;149.120;2023-05-01T07:20:40;12.70;76.20
46123;DHT22;31856;-35.404;149.120;2023-05-01T07:23:10;12.60;76.40
46123;DHT22;31856;-35.404;149.120;2023-05-01T07:25:39;12.50;76.40
46123;DHT22;31856;-35.404;149.120;2023-05-01T07:28:12;12.50;76.60
46123;DHT22;31856;-35.404;149.120;2023-05-01T07:30:42;12.30;76.90
46123;DHT22;31856;-35.404;149.120;2023-05-01T07:33:11;12.30;76.80
46123;DHT22;31856;-35.404;149.120;2023-05-01T07:35:41;12.30;77.00
46123;DHT22;31856;-35.404;149.120;2023-05-01T07:38:11;12.30;76.90
46123;DHT22;31856;-35.404;149.120;2023-05-01T07:40:41;12.30;77.10
46123;DHT22;31856;-35.404;149.120;2023-05-01T07:43:11;12.30;77.00
46123;DHT22;31856;-35.404;149.120;2023-05-01T07:45:53;12.30;77.00
46123;DHT22;31856;-35.404;149.120;2023-05-01T07:48:23;12.20;76.80
46123;DHT22;31856;-35.404;149.120;2023-05-01T07:50:53;12.10;77.00
46123;DHT22;31856;-35.404;149.120;2023-05-01T07:53:23;12.20;77.00
